Detroit, Michigan
Traffic Map
Current Weather Conditions
Detroit, Michigan
Few Clouds
Few Clouds
17°
Feels Like: 17°
Wind Chill: 17° Ceiling: Unl
Heat Index: 17° Visibility: 15mi
Dew Point: 11° Wind: 3mph
Humidity: 68% Direction: 70° (ENE)
Pressure: 30.04in Gusts: 0mph
Raw Report DataCYQG 300400Z 07003KT 15SM FEW260 17/11 A3004 RMK CI2 SLP173 DENSITY ALT 800FT
Traffic Incident Summary
Active as of:
Severity:
Category:
InformationThere was an issue retrieving the traffic information for this location. Please try a different location or try again shortly.
Advertisements
Track Severe Weather on mobile